Notre petit Co2 du mois ! Pas de panique, le pire reste à venir

Partageons !

Le pire reste à venir. Le CO2 n’est pas super haut…mais les touristes sont rares et à Durbuy, les pics de CO2 sont principalement touristiques.
Si je dis pas super haut, c’est tout de même très haut. 418.6 de CO2, c’est plus que la moyenne mondiale. Durbuy collabore gaillardement au changement climatique ! en produisant plus que la moyenne.
Hop làààà, c’est dit et écrit.

Image d’entête , diapason wikipédia: C’est où ? c’est làààààà

 

Address 1
Serial Number 12631
Test Name Co2 Grandhan
Setting Time 02-01-2023 10:43:42
Total Records 12700
Record Interval 2 hour
Immediately/Manual Immediately
Temperature Alarm L:-6 H:50 ℃
Humidity Alarm L:10 H:100 %RH
CO2 Alarm 2000 ppm
Start Time 02-01-2023 10:43:42
Test Records 392
Is TEMP Alarm
Is HUMI Alarm Low(RH) High(RH)
Is CO2 Alarm
Record Time Temp(℃) Humi(%RH) DP(℃) CO2(PPM)
1 02-01-23 10:43:42 9.9 87.5 37.2 398
2 02-01-23 12:43:42 7.0 82.3 27.4 398
3 02-01-23 14:43:42 8.5 75.9 26.2 398
4 02-01-23 16:43:42 8.3 74.9 25.1 399
5 02-01-23 18:43:42 7.6 78.1 25.9 400
6 02-01-23 20:43:42 7.0 85.7 29.7 401
7 02-01-23 22:43:42 7.1 86.3 30.4 401
8 02-02-23 00:43:42 7.4 85.3 30.4 400
9 02-02-23 02:43:42 7.4 84.5 29.9 401
10 02-02-23 04:43:42 7.3 84.9 29.9 401
11 02-02-23 06:43:42 7.1 85.6 29.9 399
12 02-02-23 08:43:42 6.8 87.9 30.7 401
13 02-02-23 10:43:42 7.4 88.0 32.3 401
14 02-02-23 12:43:42 7.9 88.0 33.4 401
15 02-02-23 14:43:42 9.9 78.7 30.9 399
16 02-02-23 16:43:42 9.4 77.4 29.0 399
17 02-02-23 18:43:42 8.7 82.6 31.4 401
18 02-02-23 20:43:42 8.7 86.6 34.2 404
19 02-02-23 22:43:42 8.5 87.3 34.3 402
20 02-03-23 00:43:42 8.5 86.2 33.5 404
21 02-03-23 02:43:42 8.2 86.8 33.3 401
22 02-03-23 04:43:42 8.3 85.7 32.7 401
23 02-03-23 06:43:42 8.5 84.8 32.5 402
24 02-03-23 08:43:42 8.5 84.3 32.2 401
25 02-03-23 10:43:42 8.8 84.5 32.9 402
26 02-03-23 12:43:42 9.2 86.8 35.4 401
27 02-03-23 14:43:42 9.3 90.1 37.9 401
28 02-03-23 16:43:42 9.6 89.7 38.2 411
29 02-03-23 18:43:42 9.8 87.7 37.1 411
30 02-03-23 20:43:42 9.5 87.6 36.5 412
31 02-03-23 22:43:42 9.8 89.1 38.1 416
32 02-04-23 00:43:42 9.6 90.6 38.8 417
33 02-04-23 02:43:42 9.5 91.1 39.0 421
34 02-04-23 04:43:42 9.2 89.3 37.1 418
35 02-04-23 06:43:42 8.6 89.7 36.2 427
36 02-04-23 08:43:42 7.6 88.1 32.8 439
37 02-04-23 10:43:42 7.8 90.8 35.2 418
38 02-04-23 12:43:42 9.4 86.5 35.5 416
39 02-04-23 14:43:42 10.1 84.4 35.3 415
40 02-04-23 16:43:42 9.9 86.5 36.5 413
41 02-04-23 18:43:42 9.3 87.1 35.8 422
42 02-04-23 20:43:42 8.9 88.0 35.6 430
43 02-04-23 22:43:42 8.7 88.9 35.8 434
44 02-05-23 00:43:42 8.4 89.5 35.6 446
45 02-05-23 02:43:42 8.2 89.6 35.2 451
46 02-05-23 04:43:42 7.9 90.1 34.9 430
47 02-05-23 06:43:42 7.4 89.0 33.0 422
48 02-05-23 08:43:42 6.7 89.0 31.2 419
49 02-05-23 10:43:42 6.7 88.7 31.0 413
50 02-05-23 12:43:42 6.9 86.6 30.1 410
51 02-05-23 14:43:42 7.3 83.0 28.6 408
52 02-05-23 16:43:42 7.6 79.3 26.7 410
53 02-05-23 18:43:42 6.1 82.8 25.4 413
54 02-05-23 20:43:42 5.5 82.4 23.4 413
55 02-05-23 22:43:42 5.1 85.1 23.9 413
56 02-06-23 00:43:42 4.2 84.9 20.6 417
57 02-06-23 02:43:42 4.1 84.6 20.0 414
58 02-06-23 04:43:42 2.7 85.9 14.2 421
59 02-06-23 06:43:42 3.0 85.3 15.5 423
60 02-06-23 08:43:42 2.1 87.1 11.1 429
61 02-06-23 10:43:42 3.2 87.6 17.9 418
62 02-06-23 12:43:42 5.0 84.2 23.0 416
63 02-06-23 14:43:42 9.9 68.5 23.5 419
64 02-06-23 16:43:42 8.5 67.2 20.1 420
65 02-06-23 18:43:42 5.3 73.4 16.8 422
66 02-06-23 20:43:42 3.8 78.8 15.1 426
67 02-06-23 22:43:42 2.9 80.5 12.0 427
68 02-07-23 00:43:42 1.9 83.8 7.7 434
69 02-07-23 02:43:42 0.7 82.6 -6.7 429
70 02-07-23 04:43:42 0.0 81.6 436
71 02-07-23 06:43:42 0.0 81.5 424
72 02-07-23 08:43:42 0.0 83.7 436
73 02-07-23 10:43:42 1.9 86.5 9.3 430
74 02-07-23 12:43:42 6.0 71.1 17.2 416
75 02-07-23 14:43:42 11.4 51.3 13.0 414
76 02-07-23 16:43:42 10.4 52.2 12.3 419
77 02-07-23 18:43:42 5.8 62.7 11.0 422
78 02-07-23 20:43:42 2.7 69.8 4.4 432
79 02-07-23 22:43:42 1.1 71.1 -7.0 444
80 02-08-23 00:43:42 1.1 71.2 -7.0 444
81 02-08-23 02:43:42 0.0 72.2 457
82 02-08-23 04:43:42 0.0 74.3 459
83 02-08-23 06:43:42 0.0 73.9 452
84 02-08-23 08:43:42 0.0 74.7 461
85 02-08-23 10:43:42 0.0 75.3 456
86 02-08-23 12:43:42 0.0 81.7 453
87 02-08-23 14:43:42 4.1 62.1 5.5 419
88 02-08-23 16:43:42 11.2 42.9 6.4 414
89 02-08-23 18:43:42 13.8 33.9 2.5 414
90 02-08-23 20:43:42 8.7 33.5 -4.1 413
91 02-08-23 22:43:42 3.8 45.7 -6.4 426
92 02-09-23 00:43:42 1.6 49.6 -14.8 412
93 02-09-23 02:43:42 0.7 53.3 -22.3 414
94 02-09-23 04:43:42 0.0 56.6 436
95 02-09-23 06:43:42 0.0 65.1 437
96 02-09-23 08:43:42 0.0 66.5 437
97 02-09-23 10:43:42 0.0 74.2 444
98 02-09-23 12:43:42 0.0 75.8 432
99 02-09-23 14:43:42 3.3 61.2 1.8 426
100 02-09-23 16:43:42 8.8 48.1 6.8 415
101 02-09-23 18:43:42 10.6 42.0 4.9 411
102 02-09-23 20:43:42 7.1 50.0 5.1 420
103 02-09-23 22:43:42 2.9 58.2 -1.9 423
104 02-10-23 00:43:42 2.3 66.1 -0.1 440
105 02-10-23 02:43:42 2.4 69.5 2.5 439
106 02-10-23 04:43:42 2.7 71.4 5.4 432
107 02-10-23 06:43:42 2.6 75.8 7.5 424
108 02-10-23 08:43:42 2.7 77.0 8.8 433
109 02-10-23 10:43:42 2.5 77.2 7.8 452
110 02-10-23 12:43:42 2.9 78.3 10.7 435
111 02-10-23 14:43:42 5.7 78.4 21.3 410
112 02-10-23 16:43:42 8.3 71.7 22.9 408
113 02-10-23 18:43:42 9.5 66.8 21.6 407
114 02-10-23 20:43:42 8.0 72.2 22.6 407
115 02-10-23 22:43:42 6.9 74.4 21.7 414
116 02-11-23 00:43:42 6.0 76.5 20.9 412
117 02-11-23 02:43:42 5.8 75.9 19.9 413
118 02-11-23 04:43:42 5.3 77.2 19.3 410
119 02-11-23 06:43:42 3.9 80.4 16.6 412
120 02-11-23 08:43:42 4.6 81.4 19.8 414
121 02-11-23 10:43:42 4.7 86.4 23.4 406
122 02-11-23 12:43:42 5.1 87.1 25.2 407
123 02-11-23 14:43:42 6.7 86.7 29.6 407
124 02-11-23 16:43:42 7.4 87.8 32.1 408
125 02-11-23 18:43:42 7.8 87.4 32.8 407
126 02-11-23 20:43:42 7.9 87.2 32.9 415
127 02-11-23 22:43:42 7.9 86.8 32.6 413
128 02-12-23 00:43:42 7.8 86.7 32.3 420
129 02-12-23 02:43:42 7.4 87.3 31.8 450
130 02-12-23 04:43:42 7.3 88.1 32.1 499
131 02-12-23 06:43:42 7.3 87.8 31.9 474
132 02-12-23 08:43:42 7.1 88.5 31.9 454
133 02-12-23 10:43:42 7.0 88.5 31.6 466
134 02-12-23 12:43:42 7.2 87.9 31.7 450
135 02-12-23 14:43:42 8.3 87.6 34.1 419
136 02-12-23 16:43:42 9.2 84.7 33.9 409
137 02-12-23 18:43:42 10.0 82.6 33.9 406
138 02-12-23 20:43:42 9.6 82.5 33.1 416
139 02-12-23 22:43:42 7.4 82.0 28.1 426
140 02-13-23 00:43:42 4.6 81.6 20.0 443
141 02-13-23 02:43:42 2.4 85.7 12.3 456
142 02-13-23 04:43:42 0.7 85.0 -5.5 456
143 02-13-23 06:43:42 0.7 85.0 -5.5 456
144 02-13-23 08:43:42 0.0 85.1 456
145 02-13-23 10:43:42 0.0 85.4 444
146 02-13-23 12:43:42 0.0 85.5 441
147 02-13-23 14:43:42 1.3 88.6 4.9 443
148 02-13-23 16:43:42 9.2 82.8 32.5 411
149 02-13-23 18:43:42 15.3 69.2 31.5 406
150 02-13-23 20:43:42 19.9 48.6 19.7 404
151 02-13-23 22:43:42 16.3 52.0 19.2 409
152 02-14-23 00:43:42 10.4 62.9 20.2 430
153 02-14-23 02:43:42 6.3 68.1 15.9 447
154 02-14-23 04:43:42 3.5 72.2 9.7 450
155 02-14-23 06:43:42 1.8 76.3 2.6 460
156 02-14-23 08:43:42 0.6 76.7 -11.7 472
157 02-14-23 10:43:42 0.0 74.9 460
158 02-14-23 12:43:42 0.0 74.9 470
159 02-14-23 14:43:42 1.4 83.8 3.3 454
160 02-14-23 16:43:42 10.2 70.2 25.2 410
161 02-14-23 18:43:42 16.2 56.6 22.7 410
162 02-14-23 20:43:42 20.0 46.5 18.0 412
163 02-14-23 22:43:42 16.1 50.3 17.6 420
164 02-15-23 00:43:42 9.6 61.6 18.0 437
165 02-15-23 02:43:42 5.8 66.9 13.8 469
166 02-15-23 04:43:42 3.5 69.8 8.1 448
167 02-15-23 06:43:42 2.0 70.8 0.8 448
168 02-15-23 08:43:42 0.5 74.5 -15.1 469
169 02-15-23 10:43:42 0.0 73.6 483
170 02-15-23 12:43:42 0.0 75.2 483
171 02-15-23 14:43:42 1.9 82.1 6.7 490
172 02-15-23 16:43:42 10.9 65.2 22.7 418
173 02-15-23 18:43:42 17.9 46.8 16.5 413
174 02-15-23 20:43:42 17.1 43.9 13.5 407
175 02-15-23 22:43:42 14.3 50.0 15.5 410
176 02-16-23 00:43:42 10.3 59.1 17.3 420
177 02-16-23 02:43:42 6.5 64.4 13.9 459
178 02-16-23 04:43:42 3.4 71.6 8.9 463
179 02-16-23 06:43:42 1.6 71.9 -1.6 471
180 02-16-23 08:43:42 0.4 74.1 -17.9 458
181 02-16-23 10:43:42 0.0 77.5 -1.$ 435
182 02-16-23 12:43:42 0.7 81.0 -7.5 459
183 02-16-23 14:43:42 3.3 84.1 16.3 425
184 02-16-23 16:43:42 7.1 80.7 26.5 410
185 02-16-23 18:43:42 10.2 77.6 30.6 395
186 02-16-23 20:43:42 13.1 67.5 27.5 396
187 02-16-23 22:43:42 11.3 71.5 27.9 397
188 02-17-23 00:43:42 10.1 81.9 33.5 398
189 02-17-23 02:43:42 10.0 84.8 35.4 397
190 02-17-23 04:43:42 10.2 83.3 34.7 396
191 02-17-23 06:43:42 10.0 85.9 36.2 396
192 02-17-23 08:43:42 10.5 86.0 37.2 395
193 02-17-23 10:43:42 10.8 85.1 37.1 393
194 02-17-23 12:43:42 11.0 84.9 37.3 394
195 02-17-23 14:43:42 11.2 89.5 40.9 394
196 02-17-23 16:43:42 13.1 84.5 40.2 394
197 02-17-23 18:43:42 14.5 80.0 38.7 393
198 02-17-23 20:43:42 15.1 75.7 36.2 392
199 02-17-23 22:43:42 14.3 74.5 34.3 393
200 02-18-23 00:43:42 12.2 83.0 37.8 395
201 02-18-23 02:43:42 11.3 86.4 38.8 395
202 02-18-23 04:43:42 10.7 90.6 40.9 396
203 02-18-23 06:43:42 10.4 92.1 41.4 395
204 02-18-23 08:43:42 10.1 92.7 41.3 394
205 02-18-23 10:43:42 9.8 92.7 40.7 395
206 02-18-23 12:43:42 9.4 91.3 38.9 393
207 02-18-23 14:43:42 9.3 88.3 36.6 390
208 02-18-23 16:43:42 10.0 86.2 36.4 389
209 02-18-23 18:43:42 10.1 87.5 37.6 391
210 02-18-23 20:43:42 10.0 91.7 40.4 389
211 02-18-23 22:43:42 10.0 92.4 40.9 391
212 02-19-23 00:43:42 9.7 93.6 41.1 392
213 02-19-23 02:43:42 9.7 93.9 41.4 392
214 02-19-23 04:43:42 9.7 94.0 41.4 391
215 02-19-23 06:43:42 9.8 93.4 41.2 391
216 02-19-23 08:43:42 9.7 91.8 39.9 389
217 02-19-23 10:43:42 9.4 90.3 38.2 391
218 02-19-23 12:43:42 9.3 89.5 37.5 393
219 02-19-23 14:43:42 9.6 88.3 37.2 393
220 02-19-23 16:43:42 10.4 89.9 39.8 394
221 02-19-23 18:43:42 10.5 86.3 37.4 395
222 02-19-23 20:43:42 10.5 83.3 35.2 393
223 02-19-23 22:43:42 10.3 83.5 35.0 408
224 02-20-23 00:43:42 9.0 81.5 31.2 396
225 02-20-23 02:43:42 7.9 81.3 28.8 411
226 02-20-23 04:43:42 5.1 81.5 21.6 434
227 02-20-23 06:43:42 3.4 83.0 16.0 449
228 02-20-23 08:43:42 2.1 85.8 10.4 438
229 02-20-23 10:43:42 1.6 84.2 5.4 425
230 02-20-23 12:43:42 1.8 89.1 10.0 408
231 02-20-23 14:43:42 4.9 92.1 27.8 408
232 02-20-23 16:43:42 8.9 82.8 31.9 394
233 02-20-23 18:43:42 14.8 63.0 26.1 391
234 02-20-23 20:43:42 17.7 55.7 23.4 393
235 02-20-23 22:43:42 15.3 58.2 23.0 396
236 02-21-23 00:43:42 10.1 68.9 24.1 405
237 02-21-23 02:43:42 7.9 77.7 26.3 401
238 02-21-23 04:43:42 5.3 77.4 19.5 436
239 02-21-23 06:43:42 3.7 79.8 15.3 442
240 02-21-23 08:43:42 2.6 81.4 10.9 458
241 02-21-23 10:43:42 2.6 81.3 10.9 458
242 02-21-23 12:43:42 2.6 83.6 12.3 437
243 02-21-23 14:43:42 2.9 84.3 14.4 437
244 02-21-23 16:43:42 3.1 88.2 17.8 407
245 02-21-23 18:43:42 7.3 84.8 29.8 401
246 02-21-23 20:43:42 17.5 60.5 27.0 389
247 02-21-23 22:43:42 21.5 49.0 21.2 393
248 02-22-23 00:43:42 16.7 54.2 21.3 396
249 02-22-23 02:43:42 11.2 67.5 24.8 414
250 02-22-23 04:43:42 6.6 72.5 19.7 434
251 02-22-23 06:43:42 4.1 74.3 13.4 432
252 02-22-23 08:43:42 2.4 77.8 7.6 444
253 02-22-23 10:43:42 1.2 77.7 -2.2 461
254 02-22-23 12:43:42 0.9 79.0 -5.3 460
255 02-22-23 14:43:42 0.9 79.0 -5.3 460
256 02-22-23 16:43:42 0.9 79.3 -5.2 458
257 02-22-23 18:43:42 2.1 84.3 9.5 452
258 02-22-23 20:43:42 10.3 74.7 28.7 394
259 02-22-23 22:43:42 13.2 70.1 29.6 388
260 02-23-23 00:43:42 13.0 70.5 29.6 391
261 02-23-23 02:43:42 11.9 78.4 33.9 396
262 02-23-23 04:43:42 11.0 82.4 35.4 413
263 02-23-23 06:43:42 10.6 84.6 36.4 415
264 02-23-23 08:43:42 10.3 85.8 36.7 426
265 02-23-23 10:43:42 9.7 85.6 35.5 415
266 02-23-23 12:43:42 9.1 86.7 35.1 418
267 02-23-23 14:43:42 9.2 85.8 34.6 422
268 02-23-23 16:43:42 9.1 86.3 34.8 435
269 02-23-23 18:43:42 9.3 87.0 35.7 432
270 02-23-23 20:43:42 10.8 86.7 38.2 409
271 02-23-23 22:43:42 11.2 83.0 36.2 405
272 02-24-23 00:43:42 10.4 81.9 34.1 406
273 02-24-23 02:43:42 9.7 82.4 33.2 405
274 02-24-23 04:43:42 9.2 83.8 33.2 422
275 02-24-23 06:43:42 8.7 83.3 31.9 414
276 02-24-23 08:43:42 8.1 83.5 30.8 414
277 02-24-23 10:43:42 7.6 84.4 30.3 422
278 02-24-23 12:43:42 7.4 84.4 29.8 412
279 02-24-23 14:43:42 7.1 85.8 30.0 400
280 02-24-23 16:43:42 6.2 85.6 27.6 400
281 02-24-23 18:43:42 6.1 85.2 27.0 396
282 02-24-23 20:43:42 7.3 78.0 25.1 393
283 02-24-23 22:43:42 8.2 72.9 23.5 391
284 02-25-23 00:43:42 7.8 72.3 22.3 390
285 02-25-23 02:43:42 7.1 76.6 23.7 393
286 02-25-23 04:43:42 6.7 82.4 26.7 393
287 02-25-23 06:43:42 6.1 81.1 24.3 396
288 02-25-23 08:43:42 5.9 82.0 24.3 392
289 02-25-23 10:43:42 5.1 82.6 22.3 396
290 02-25-23 12:43:42 4.0 83.1 18.7 398
291 02-25-23 14:43:42 3.6 82.5 16.6 394
292 02-25-23 16:43:42 3.4 84.4 16.9 397
293 02-25-23 18:43:42 4.3 84.6 20.8 396
294 02-25-23 20:43:42 6.6 77.7 23.3 389
295 02-25-23 22:43:42 7.9 72.8 22.8 389
296 02-26-23 00:43:42 7.6 69.0 19.5 390
297 02-26-23 02:43:42 8.9 57.1 13.5 393
298 02-26-23 04:43:42 4.1 61.6 5.1 395
299 02-26-23 06:43:42 1.7 63.5 -5.8 398
300 02-26-23 08:43:42 0.4 66.4 -21.8 400
301 02-26-23 10:43:42 0.0 68.4 411
302 02-26-23 12:43:42 0.0 71.6 410
303 02-26-23 14:43:42 0.0 74.7 405
304 02-26-23 16:43:42 0.0 79.3 398
305 02-26-23 18:43:42 0.0 80.9 400
306 02-26-23 20:43:42 5.3 69.0 13.9 402
307 02-26-23 22:43:42 5.4 59.9 8.0 397
308 02-27-23 00:43:42 7.5 48.6 4.8 397
309 02-27-23 02:43:42 4.8 50.2 -0.3 397
310 02-27-23 04:43:42 2.0 57.4 -7.3 399
311 02-27-23 06:43:42 0.5 63.0 -21.0 401
312 02-27-23 08:43:42 0.0 64.5 404
313 02-27-23 10:43:42 0.0 67.4 403
314 02-27-23 12:43:42 0.0 68.3 406
315 02-27-23 14:43:42 0.0 72.4 406
316 02-27-23 16:43:42 0.0 72.2 412
317 02-27-23 18:43:42 2.1 71.6 1.9 405
318 02-27-23 20:43:42 6.1 56.2 7.2 400
319 02-27-23 22:43:42 9.5 47.2 7.2 401
320 02-28-23 00:43:42 10.4 45.3 7.1 405
321 02-28-23 02:43:42 7.2 50.7 5.8 406
322 02-28-23 04:43:42 3.8 58.0 1.7 405
323 02-28-23 06:43:42 2.5 63.4 -0.7 406
324 02-28-23 08:43:42 0.8 65.9 -13.9 405
325 02-28-23 10:43:42 0.1 68.2 -35.6 412
326 02-28-23 12:43:42 0.0 72.0 412
327 02-28-23 14:43:42 0.0 74.8 412
328 02-28-23 16:43:42 0.0 76.3 410
329 02-28-23 18:43:42 2.6 71.6 5.0 411
330 02-28-23 20:43:42 5.9 54.8 5.8 401
331 02-28-23 22:43:42 7.1 46.5 2.6 397
332 03-01-23 00:43:42 8.3 43.9 2.9 398
333 03-01-23 02:43:42 6.9 45.0 1.1 398
334 03-01-23 04:43:42 3.1 51.6 -5.2 406
335 03-01-23 06:43:42 1.0 55.1 -17.2 414
336 03-01-23 08:43:42 0.0 59.2 413
337 03-01-23 10:43:42 0.0 66.6 417
338 03-01-23 12:43:42 0.0 63.5 426
339 03-01-23 14:43:42 0.0 64.1 424
340 03-01-23 16:43:42 0.0 66.4 433
341 03-01-23 18:43:42 0.7 74.5 -11.0 423
342 03-01-23 20:43:42 6.6 58.7 10.1 420
343 03-01-23 22:43:42 11.4 46.7 9.6 417
344 03-02-23 00:43:42 12.3 43.0 7.9 422
345 03-02-23 02:43:42 8.9 47.4 6.4 422
346 03-02-23 04:43:42 4.8 53.6 2.0 431
347 03-02-23 06:43:42 2.8 59.0 -1.9 423
348 03-02-23 08:43:42 1.1 62.3 -12.0 426
349 03-02-23 10:43:42 0.0 63.7 446
350 03-02-23 12:43:42 0.0 66.4 448
351 03-02-23 14:43:42 0.0 70.0 458
352 03-02-23 16:43:42 0.0 69.6 460
353 03-02-23 18:43:42 3.0 71.4 6.9 433
354 03-02-23 20:43:42 9.8 55.1 13.5 417
355 03-02-23 22:43:42 15.0 46.1 13.2 424
356 03-03-23 00:43:42 16.2 42.4 11.5 424
357 03-03-23 02:43:42 12.3 47.1 11.0 430
358 03-03-23 04:43:42 7.8 53.1 8.6 434
359 03-03-23 06:43:42 5.1 54.2 3.3 440
360 03-03-23 08:43:42 2.4 60.1 -3.3 454
361 03-03-23 10:43:42 0.4 65.6 -22.2 474
362 03-03-23 12:43:42 0.0 71.2 473
363 03-03-23 14:43:42 0.0 73.5 470
364 03-03-23 16:43:42 0.7 79.3 -8.4 435
365 03-03-23 18:43:42 0.7 82.2 -6.9 433
366 03-03-23 20:43:42 1.7 82.6 5.4 428
367 03-03-23 22:43:42 2.9 79.4 11.4 427
368 03-04-23 00:43:42 4.2 73.7 13.4 425
369 03-04-23 02:43:42 3.4 74.3 10.6 421
370 03-04-23 04:43:42 1.6 72.6 -1.2 423
371 03-04-23 06:43:42 0.0 71.8 430
372 03-04-23 08:43:42 0.0 76.6 442
373 03-04-23 10:43:42 0.0 79.9 445
374 03-04-23 12:43:42 0.0 80.8 447
375 03-04-23 14:43:42 0.0 81.2 448
376 03-04-23 16:43:42 0.4 80.5 -14.8 446
377 03-04-23 18:43:42 1.4 81.7 2.1 448
378 03-04-23 20:43:42 4.7 78.8 18.5 409
379 03-04-23 22:43:42 6.5 72.8 19.7 409
380 03-05-23 00:43:42 7.3 71.5 20.6 407
381 03-05-23 02:43:42 6.8 73.7 21.0 414
382 03-05-23 04:43:42 6.2 75.7 20.9 422
383 03-05-23 06:43:42 6.0 79.0 22.6 425
384 03-05-23 08:43:42 6.0 80.4 23.5 415
385 03-05-23 10:43:42 5.5 79.1 21.2 419
386 03-05-23 12:43:42 5.2 79.8 20.8 419
387 03-05-23 14:43:42 4.7 77.6 17.7 410
388 03-05-23 16:43:42 4.0 79.3 16.2 411
389 03-05-23 18:43:42 4.4 81.4 19.1 410
390 03-05-23 20:43:42 6.1 76.1 20.9 409
391 03-05-23 22:43:42 6.7 73.4 20.6 407
392 03-06-23 00:43:42 6.9 72.4 20.3 408

Partageons !
Author: Bernard Adam
Cuisinier à la retraite

Laisser un commentaire

Votre adresse de messagerie ne sera pas publiée. Les champs obligatoires sont indiqués avec *

− 3 = 4